createdAt,value
2018-11-12T00:02:06.576Z,11.10
2018-11-12T00:04:34.731Z,11.10
2018-11-12T00:07:02.857Z,11.20
2018-11-12T00:09:30.982Z,11.20
2018-11-12T00:11:59.132Z,11.30
2018-11-12T00:14:27.248Z,11.30
2018-11-12T00:16:55.386Z,11.20
2018-11-12T00:19:23.534Z,11.20
2018-11-12T00:21:51.760Z,11.10
2018-11-12T00:24:19.845Z,11.10
2018-11-12T00:26:47.994Z,11.10
2018-11-12T00:29:16.158Z,11.10
2018-11-12T00:31:44.299Z,11.10
2018-11-12T00:34:12.429Z,11.10
2018-11-12T00:36:40.562Z,11.00
2018-11-12T00:39:10.321Z,11.00
2018-11-12T00:41:38.482Z,11.00
2018-11-12T00:44:06.785Z,11.00
2018-11-12T00:46:34.911Z,11.00
2018-11-12T00:49:03.153Z,11.00
2018-11-12T00:51:31.308Z,11.00
2018-11-12T00:53:59.594Z,11.00
2018-11-12T00:56:27.733Z,10.90
2018-11-12T00:58:55.869Z,10.90
2018-11-12T01:01:24.006Z,10.90
2018-11-12T01:03:52.179Z,10.90
2018-11-12T01:06:20.286Z,10.90
2018-11-12T01:08:48.428Z,10.90
2018-11-12T01:11:16.544Z,10.90
2018-11-12T01:13:44.727Z,11.00
2018-11-12T01:16:12.932Z,11.00
2018-11-12T01:18:40.965Z,11.10
2018-11-12T01:21:09.099Z,11.10
2018-11-12T01:23:37.225Z,11.10
2018-11-12T01:26:05.374Z,11.10
2018-11-12T01:28:33.541Z,11.10
2018-11-12T01:31:03.669Z,11.10
2018-11-12T01:33:32.382Z,11.10
2018-11-12T01:36:00.517Z,11.10
2018-11-12T01:38:28.676Z,11.10
2018-11-12T01:40:56.883Z,11.20
2018-11-12T01:43:25.066Z,11.10
2018-11-12T01:45:53.243Z,11.20
2018-11-12T01:48:21.506Z,11.20
2018-11-12T01:50:49.684Z,11.20
2018-11-12T01:53:17.872Z,11.30
2018-11-12T01:55:46.052Z,11.30
2018-11-12T01:58:14.222Z,11.30
2018-11-12T02:00:42.362Z,11.30
2018-11-12T02:03:10.501Z,11.30
2018-11-12T02:05:38.605Z,11.30
2018-11-12T02:08:06.712Z,11.40
2018-11-12T02:10:34.842Z,11.40
2018-11-12T02:13:02.912Z,11.40
2018-11-12T02:15:31.023Z,11.50
2018-11-12T02:17:59.201Z,11.50
2018-11-12T02:20:27.330Z,11.50
2018-11-12T02:22:55.485Z,11.40
2018-11-12T02:25:23.671Z,11.40
2018-11-12T02:27:51.778Z,11.40
2018-11-12T02:30:25.357Z,11.30
2018-11-12T02:32:53.471Z,11.30
2018-11-12T02:35:21.589Z,11.30
2018-11-12T02:37:49.672Z,11.30
2018-11-12T02:40:17.772Z,11.30
2018-11-12T02:42:45.860Z,11.30
2018-11-12T02:45:14.498Z,11.30
2018-11-12T02:47:43.589Z,11.20
2018-11-12T02:50:14.120Z,11.20
2018-11-12T02:52:42.262Z,11.20
2018-11-12T02:55:12.112Z,11.20
2018-11-12T02:57:40.893Z,11.20
2018-11-12T03:00:11.625Z,11.20
2018-11-12T03:02:39.768Z,11.20
2018-11-12T03:05:08.691Z,11.20
2018-11-12T03:07:37.191Z,11.10
2018-11-12T03:10:07.349Z,11.20
2018-11-12T03:12:35.525Z,11.20
2018-11-12T03:15:03.616Z,11.20
2018-11-12T03:17:31.725Z,11.30
2018-11-12T03:19:59.862Z,11.30
2018-11-12T03:22:27.939Z,11.20
2018-11-12T03:24:56.058Z,11.30
2018-11-12T03:27:24.163Z,11.30
2018-11-12T03:29:52.271Z,11.30
2018-11-12T03:32:20.366Z,11.30
2018-11-12T03:34:48.474Z,11.30
2018-11-12T03:37:16.568Z,11.40
2018-11-12T03:39:44.703Z,11.40
2018-11-12T03:42:12.757Z,11.30
2018-11-12T03:44:40.856Z,11.40
2018-11-12T03:47:08.952Z,11.40
2018-11-12T03:49:37.069Z,11.40
2018-11-12T03:52:05.533Z,11.40
2018-11-12T03:54:33.638Z,11.40
2018-11-12T03:57:01.755Z,11.50
2018-11-12T03:59:29.868Z,11.50
2018-11-12T04:01:57.986Z,11.40
2018-11-12T04:04:26.121Z,11.40
2018-11-12T04:06:54.245Z,11.50
2018-11-12T04:09:22.344Z,11.40
2018-11-12T04:11:50.457Z,11.50
2018-11-12T04:14:18.564Z,11.50
2018-11-12T04:16:46.690Z,11.50
2018-11-12T04:19:14.812Z,11.40
2018-11-12T04:21:42.925Z,11.40
2018-11-12T04:24:11.035Z,11.40
2018-11-12T04:26:39.152Z,11.40
2018-11-12T04:29:07.254Z,11.30
2018-11-12T04:31:35.349Z,11.30
2018-11-12T04:34:03.468Z,11.30
2018-11-12T04:36:31.560Z,11.30
2018-11-12T04:38:59.650Z,11.30
2018-11-12T04:41:27.745Z,11.30
2018-11-12T04:43:55.861Z,11.30
2018-11-12T04:46:23.965Z,11.20
2018-11-12T04:48:52.109Z,11.20
2018-11-12T04:51:20.314Z,11.10
2018-11-12T04:53:48.516Z,11.10
2018-11-12T04:56:16.533Z,11.10
2018-11-12T04:58:44.617Z,11.10
2018-11-12T05:01:12.734Z,11.10
2018-11-12T05:03:41.146Z,11.20
2018-11-12T05:06:09.269Z,11.20
2018-11-12T05:08:37.369Z,11.10
2018-11-12T05:11:05.913Z,11.10
2018-11-12T05:13:34.034Z,11.10
2018-11-12T05:16:02.133Z,11.10
2018-11-12T05:18:30.228Z,11.10
2018-11-12T05:20:58.392Z,11.10
2018-11-12T05:23:26.493Z,11.10
2018-11-12T05:25:54.594Z,11.10
2018-11-12T05:28:22.733Z,11.20
2018-11-12T05:30:50.847Z,11.20
2018-11-12T05:33:18.959Z,11.20
2018-11-12T05:35:47.054Z,11.30
2018-11-12T05:38:15.162Z,11.30
2018-11-12T05:40:43.266Z,11.20
2018-11-12T05:43:11.374Z,11.30
2018-11-12T05:45:39.493Z,11.30
2018-11-12T05:48:07.862Z,11.30
2018-11-12T05:50:35.965Z,11.20
2018-11-12T05:53:04.852Z,11.20
2018-11-12T05:55:33.749Z,11.10
2018-11-12T05:58:02.136Z,11.10
2018-11-12T06:00:34.515Z,11.10
2018-11-12T06:03:02.877Z,11.10
2018-11-12T06:05:31.382Z,11.10
2018-11-12T06:07:59.510Z,11.10
2018-11-12T06:10:28.845Z,11.10
2018-11-12T06:12:56.972Z,11.10
2018-11-12T06:15:25.105Z,11.10
2018-11-12T06:17:53.376Z,11.10
2018-11-12T06:20:24.818Z,11.10
2018-11-12T06:22:53.035Z,11.10
2018-11-12T06:25:22.503Z,11.10
2018-11-12T06:27:51.081Z,11.10
2018-11-12T06:30:20.589Z,11.10
2018-11-12T06:32:48.746Z,11.10
2018-11-12T06:35:17.362Z,11.20
2018-11-12T06:37:46.229Z,11.20
2018-11-12T06:40:15.642Z,11.20
2018-11-12T06:42:43.908Z,11.20
2018-11-12T06:45:14.344Z,11.20
2018-11-12T06:47:43.135Z,11.20
2018-11-12T06:50:12.944Z,11.20
2018-11-12T06:52:41.117Z,11.20
2018-11-12T06:55:10.726Z,11.20
2018-11-12T06:57:39.106Z,11.20
2018-11-12T07:00:10.427Z,11.20
2018-11-12T07:02:38.730Z,11.20
2018-11-12T07:05:08.168Z,11.20
2018-11-12T07:07:36.523Z,11.20
2018-11-12T07:10:06.083Z,11.20
2018-11-12T07:12:34.232Z,11.20
2018-11-12T07:15:02.367Z,11.10
2018-11-12T07:17:30.501Z,11.20
2018-11-12T07:19:58.627Z,11.20
2018-11-12T07:22:26.765Z,11.20
2018-11-12T07:24:54.892Z,11.20
2018-11-12T07:27:23.021Z,11.20
2018-11-12T07:29:51.185Z,11.20
2018-11-12T07:32:19.325Z,11.50
2018-11-12T07:34:47.454Z,11.50
2018-11-12T07:37:15.595Z,11.60
2018-11-12T07:39:43.708Z,11.50
2018-11-12T07:42:11.884Z,11.60
2018-11-12T07:44:40.023Z,11.60
2018-11-12T07:47:08.225Z,11.70
2018-11-12T07:49:36.353Z,11.80
2018-11-12T07:52:04.765Z,11.90
2018-11-12T07:54:33.263Z,11.90
2018-11-12T07:57:01.430Z,11.90
2018-11-12T07:59:29.616Z,12.00
2018-11-12T08:01:57.736Z,12.00
2018-11-12T08:04:25.861Z,12.10
2018-11-12T08:06:53.955Z,12.40
2018-11-12T08:09:22.097Z,12.90
2018-11-12T08:11:50.152Z,12.80
2018-11-12T08:14:18.310Z,12.70
2018-11-12T08:16:55.851Z,12.70
2018-11-12T08:19:23.931Z,12.60
2018-11-12T08:21:52.107Z,12.60
2018-11-12T08:24:21.680Z,12.60
2018-11-12T08:26:49.639Z,12.60
2018-11-12T08:29:17.733Z,12.60
2018-11-12T08:31:45.914Z,12.60
2018-11-12T08:34:14.013Z,12.60
2018-11-12T08:36:42.142Z,12.70
2018-11-12T08:39:10.302Z,12.70
2018-11-12T08:41:38.345Z,12.80
2018-11-12T08:44:06.548Z,12.80
2018-11-12T08:46:34.653Z,12.90
2018-11-12T08:49:02.887Z,12.90
2018-11-12T08:51:30.927Z,13.00
2018-11-12T08:53:59.030Z,13.00
2018-11-12T08:56:27.129Z,13.10
2018-11-12T08:58:55.260Z,13.10
2018-11-12T09:01:23.345Z,13.30
2018-11-12T09:03:51.450Z,13.40
2018-11-12T09:06:19.540Z,13.70
2018-11-12T09:08:47.652Z,14.00
2018-11-12T09:11:15.760Z,14.30
2018-11-12T09:13:44.358Z,14.40
2018-11-12T09:16:12.193Z,14.40
2018-11-12T09:18:40.298Z,14.40
2018-11-12T09:21:08.394Z,14.40
2018-11-12T09:23:36.524Z,14.40
2018-11-12T09:26:04.882Z,14.50
2018-11-12T09:28:33.018Z,14.60
2018-11-12T09:31:02.524Z,14.80
2018-11-12T09:33:29.239Z,14.80
2018-11-12T09:35:57.369Z,14.70
2018-11-12T09:38:25.511Z,14.70
2018-11-12T09:40:53.575Z,14.70
2018-11-12T09:43:21.680Z,14.60
2018-11-12T09:45:49.818Z,14.60
2018-11-12T09:48:17.892Z,14.60
2018-11-12T09:50:45.978Z,14.60
2018-11-12T09:53:14.082Z,14.60
2018-11-12T09:55:42.208Z,14.70
2018-11-12T09:58:10.300Z,14.70
2018-11-12T10:00:38.835Z,14.70
2018-11-12T10:03:07.082Z,14.70
2018-11-12T10:05:35.779Z,14.80
2018-11-12T10:08:12.273Z,14.90
2018-11-12T10:10:43.652Z,15.00
2018-11-12T10:13:13.587Z,15.20
2018-11-12T10:15:42.343Z,15.20
2018-11-12T10:18:09.209Z,15.40
2018-11-12T10:20:35.517Z,15.50
2018-11-12T10:23:03.675Z,15.60
2018-11-12T10:25:31.801Z,15.80
2018-11-12T10:27:59.933Z,16.00
2018-11-12T10:30:28.067Z,16.20
2018-11-12T10:32:56.208Z,16.40
2018-11-12T10:35:24.336Z,16.40
2018-11-12T10:37:52.469Z,16.40
2018-11-12T10:40:21.740Z,16.30
2018-11-12T10:42:49.877Z,16.40
2018-11-12T10:45:18.189Z,16.40
2018-11-12T10:47:47.344Z,16.60
2018-11-12T10:50:15.558Z,16.90
2018-11-12T10:52:43.657Z,17.10
2018-11-12T10:55:14.387Z,17.20
2018-11-12T10:57:43.157Z,17.40
2018-11-12T11:00:33.104Z,17.50
2018-11-12T11:03:07.917Z,17.40
2018-11-12T11:05:36.973Z,17.50
2018-11-12T11:08:05.259Z,17.60
2018-11-12T11:10:33.342Z,17.50
2018-11-12T11:13:02.525Z,17.50
2018-11-12T11:15:32.413Z,17.60
2018-11-12T11:18:00.454Z,17.50
2018-11-12T11:20:28.777Z,17.40
2018-11-12T11:22:57.044Z,17.30
2018-11-12T11:25:25.224Z,17.20
2018-11-12T11:27:53.369Z,17.10
2018-11-12T11:30:21.510Z,17.10
2018-11-12T11:32:49.662Z,17.10
2018-11-12T11:35:18.651Z,17.20
2018-11-12T11:37:46.839Z,17.20
2018-11-12T11:40:17.520Z,17.30
2018-11-12T11:42:45.579Z,17.40
2018-11-12T11:45:14.682Z,17.60
2018-11-12T11:47:43.391Z,17.90
2018-11-12T11:50:13.538Z,18.00
2018-11-12T11:52:41.806Z,18.10
2018-11-12T11:55:12.442Z,18.60
2018-11-12T11:57:41.244Z,18.70
2018-11-12T12:00:15.549Z,18.40
2018-11-12T12:02:44.539Z,18.20
2018-11-12T12:05:13.664Z,18.00
2018-11-12T12:07:41.930Z,17.80
2018-11-12T12:10:11.009Z,17.60
2018-11-12T12:12:39.133Z,17.40
2018-11-12T12:15:08.798Z,17.40
2018-11-12T12:17:36.943Z,17.40
2018-11-12T12:20:06.842Z,17.40
2018-11-12T12:22:34.961Z,17.40
2018-11-12T12:25:03.155Z,17.40
2018-11-12T12:27:31.414Z,17.40
2018-11-12T12:29:59.541Z,17.40
2018-11-12T12:32:27.666Z,17.40
2018-11-12T12:34:55.802Z,17.50
2018-11-12T12:37:23.908Z,17.40
2018-11-12T12:39:52.285Z,17.50
2018-11-12T12:42:20.412Z,17.50
2018-11-12T12:44:48.644Z,17.50
2018-11-12T12:47:16.678Z,17.50
2018-11-12T12:49:44.949Z,17.60
2018-11-12T12:52:12.925Z,17.60
2018-11-12T12:54:41.052Z,17.60
2018-11-12T12:57:09.393Z,17.60
2018-11-12T12:59:37.546Z,17.50
2018-11-12T13:02:05.699Z,17.40
2018-11-12T13:04:33.809Z,17.40
2018-11-12T13:07:01.891Z,17.40
2018-11-12T13:09:29.994Z,17.40
2018-11-12T13:11:58.082Z,17.50
2018-11-12T13:14:26.229Z,17.50
2018-11-12T13:16:54.378Z,17.60
2018-11-12T13:19:22.483Z,17.60
2018-11-12T13:21:50.570Z,17.60
2018-11-12T13:24:18.664Z,17.50
2018-11-12T13:26:46.762Z,17.60
2018-11-12T13:29:14.874Z,17.50
2018-11-12T13:31:42.965Z,17.50
2018-11-12T13:34:11.070Z,17.50
2018-11-12T13:36:39.526Z,17.40
2018-11-12T13:39:10.109Z,17.50
2018-11-12T13:41:38.583Z,17.40
2018-11-12T13:44:06.757Z,17.50
2018-11-12T13:46:40.438Z,17.50
2018-11-12T13:49:08.429Z,17.50
2018-11-12T13:51:36.535Z,17.50
2018-11-12T13:54:05.244Z,17.40
2018-11-12T13:56:33.353Z,17.10
2018-11-12T13:59:01.466Z,16.60
2018-11-12T14:01:29.826Z,15.90
2018-11-12T14:03:58.378Z,15.60
2018-11-12T14:06:26.532Z,15.40
2018-11-12T14:08:55.761Z,15.30
2018-11-12T14:11:24.065Z,15.40
2018-11-12T14:13:52.268Z,15.80
2018-11-12T14:16:20.336Z,15.50
2018-11-12T14:18:54.820Z,15.30
2018-11-12T14:21:23.167Z,15.20
2018-11-12T14:23:51.102Z,15.00
2018-11-12T14:26:19.872Z,14.90
2018-11-12T14:28:48.128Z,14.90
2018-11-12T14:31:16.172Z,14.80
2018-11-12T14:33:44.377Z,14.70
2018-11-12T14:36:12.554Z,14.70
2018-11-12T14:38:40.655Z,14.60
2018-11-12T14:41:08.826Z,14.50
2018-11-12T14:43:37.602Z,14.40
2018-11-12T14:46:05.724Z,14.20
2018-11-12T14:48:33.877Z,13.90
2018-11-12T14:51:02.040Z,14.00
2018-11-12T14:53:30.147Z,14.00
2018-11-12T14:55:58.307Z,14.10
2018-11-12T14:58:26.448Z,13.90
2018-11-12T15:00:56.391Z,14.00
2018-11-12T15:03:24.530Z,14.10
2018-11-12T15:05:52.662Z,14.10
2018-11-12T15:08:20.753Z,14.00
2018-11-12T15:10:49.141Z,13.80
2018-11-12T15:13:17.381Z,13.90
2018-11-12T15:15:45.490Z,13.80
2018-11-12T15:18:13.589Z,13.80
2018-11-12T15:20:42.407Z,13.80
2018-11-12T15:23:10.738Z,13.60
2018-11-12T15:25:38.862Z,13.70
2018-11-12T15:28:06.962Z,13.70
2018-11-12T15:30:35.079Z,14.00
2018-11-12T15:33:04.931Z,14.10
2018-11-12T15:35:33.028Z,14.00
2018-11-12T15:38:01.135Z,14.00
2018-11-12T15:40:29.252Z,14.00
2018-11-12T15:42:57.371Z,13.90
2018-11-12T15:45:25.845Z,13.80
2018-11-12T15:48:00.663Z,13.70
2018-11-12T15:50:30.482Z,13.60
2018-11-12T15:52:58.581Z,13.60
2018-11-12T15:55:26.714Z,13.40
2018-11-12T15:57:55.005Z,13.40
2018-11-12T16:00:22.957Z,13.30
2018-11-12T16:02:51.064Z,13.30
2018-11-12T16:05:19.265Z,13.30
2018-11-12T16:07:47.414Z,13.20
2018-11-12T16:10:18.337Z,13.10
2018-11-12T16:12:46.721Z,13.10
2018-11-12T16:15:16.017Z,13.10
2018-11-12T16:17:44.181Z,13.10
2018-11-12T16:20:19.012Z,13.10
2018-11-12T16:22:47.915Z,13.10
2018-11-12T16:25:16.621Z,13.20
2018-11-12T16:27:44.886Z,13.10
2018-11-12T16:30:13.564Z,13.10
2018-11-12T16:32:46.372Z,13.10
2018-11-12T16:35:16.253Z,13.10
2018-11-12T16:37:45.155Z,13.10
2018-11-12T16:40:13.325Z,13.10
2018-11-12T16:42:42.565Z,13.10
2018-11-12T16:45:11.345Z,13.10
2018-11-12T16:47:39.652Z,13.20
2018-11-12T16:50:09.056Z,13.10
2018-11-12T16:52:37.278Z,13.10
2018-11-12T16:55:07.658Z,13.10
2018-11-12T16:57:35.926Z,12.90
2018-11-12T17:00:05.258Z,12.90
2018-11-12T17:02:33.434Z,12.90
2018-11-12T17:05:01.575Z,12.90
2018-11-12T17:07:29.717Z,12.90
2018-11-12T17:09:57.852Z,12.90
2018-11-12T17:12:29.091Z,12.90
2018-11-12T17:14:57.141Z,12.90
2018-11-12T17:17:25.310Z,12.90
2018-11-12T17:19:53.402Z,12.80
2018-11-12T17:22:21.546Z,12.90
2018-11-12T17:24:49.718Z,12.90
2018-11-12T17:27:17.819Z,12.70
2018-11-12T17:29:45.948Z,12.70
2018-11-12T17:32:14.096Z,12.80
2018-11-12T17:34:42.211Z,12.80
2018-11-12T17:37:17.263Z,12.80
2018-11-12T17:39:45.393Z,12.90
2018-11-12T17:42:13.541Z,12.90
2018-11-12T17:44:41.682Z,12.80
2018-11-12T17:47:10.019Z,12.70
2018-11-12T17:49:38.154Z,12.60
2018-11-12T17:52:06.289Z,12.60
2018-11-12T17:54:34.468Z,12.60
2018-11-12T17:57:02.565Z,12.50
2018-11-12T17:59:30.706Z,12.40
2018-11-12T18:01:58.837Z,12.50
2018-11-12T18:04:26.940Z,12.50
2018-11-12T18:06:55.050Z,12.50
2018-11-12T18:10:52.382Z,12.50
2018-11-12T18:13:20.493Z,12.50
2018-11-12T18:15:48.592Z,12.40
2018-11-12T18:18:16.705Z,12.40
2018-11-12T18:20:44.812Z,12.40
2018-11-12T18:23:12.985Z,12.40
2018-11-12T18:25:41.030Z,12.40
2018-11-12T18:28:09.136Z,12.30
2018-11-12T18:30:37.423Z,12.20
2018-11-12T18:33:05.998Z,12.30
2018-11-12T18:35:34.096Z,12.40
2018-11-12T18:38:02.312Z,12.40
2018-11-12T18:40:30.477Z,12.40
2018-11-12T18:42:58.588Z,12.40
2018-11-12T18:45:27.627Z,12.40
2018-11-12T18:47:56.109Z,12.30
2018-11-12T18:50:25.618Z,12.20
2018-11-12T18:52:53.756Z,12.10
2018-11-12T18:55:21.845Z,12.20
2018-11-12T18:57:50.437Z,12.30
2018-11-12T19:00:20.060Z,12.30
2018-11-12T19:02:48.438Z,12.20
2018-11-12T19:05:19.545Z,12.30
2018-11-12T19:07:49.080Z,12.30
2018-11-12T19:10:22.581Z,12.30
2018-11-12T19:12:51.269Z,12.30
2018-11-12T19:15:21.801Z,12.30
2018-11-12T19:17:54.887Z,12.30
2018-11-12T19:20:23.082Z,12.30
2018-11-12T19:22:51.251Z,12.40
2018-11-12T19:25:19.430Z,12.40
2018-11-12T19:27:47.596Z,12.30
2018-11-12T19:30:19.738Z,12.30
2018-11-12T19:32:47.878Z,12.20
2018-11-12T19:35:17.333Z,12.10
2018-11-12T19:37:45.625Z,12.10
2018-11-12T19:40:16.158Z,12.10
2018-11-12T19:42:45.285Z,12.10
2018-11-12T19:45:13.919Z,12.10
2018-11-12T19:47:42.369Z,12.00
2018-11-12T19:50:13.337Z,12.00
2018-11-12T19:52:42.540Z,12.00
2018-11-12T19:55:10.674Z,12.00
2018-11-12T19:57:38.829Z,12.00
2018-11-12T20:00:09.719Z,12.00
2018-11-12T20:02:37.856Z,12.10
2018-11-12T20:05:06.268Z,12.20
2018-11-12T20:07:34.479Z,12.20
2018-11-12T20:10:02.831Z,12.20
2018-11-12T20:12:31.135Z,12.20
2018-11-12T20:14:59.242Z,12.30
2018-11-12T20:17:27.345Z,12.20
2018-11-12T20:19:55.456Z,12.30
2018-11-12T20:22:23.561Z,12.20
2018-11-12T20:24:51.725Z,12.20
2018-11-12T20:27:19.801Z,12.20
2018-11-12T20:29:47.953Z,12.20
2018-11-12T20:32:16.076Z,12.30
2018-11-12T20:34:44.253Z,12.10
2018-11-12T20:37:12.546Z,12.00
2018-11-12T20:39:40.684Z,12.00
2018-11-12T20:42:08.796Z,11.90
2018-11-12T20:44:36.954Z,12.00
2018-11-12T20:47:05.201Z,12.00
2018-11-12T20:49:33.337Z,12.10
2018-11-12T20:52:01.532Z,12.00
2018-11-12T20:54:30.086Z,12.00
2018-11-12T20:56:58.215Z,12.00
2018-11-12T20:59:26.374Z,12.00
2018-11-12T21:01:54.471Z,12.00
2018-11-12T21:04:22.585Z,12.00
2018-11-12T21:06:50.697Z,12.00
2018-11-12T21:09:18.860Z,12.00
2018-11-12T21:11:46.964Z,12.00
2018-11-12T21:14:15.081Z,12.00
2018-11-12T21:16:43.215Z,12.00
2018-11-12T21:19:12.195Z,12.00
2018-11-12T21:21:40.291Z,12.00
2018-11-12T21:24:08.449Z,12.00
2018-11-12T21:26:36.549Z,12.00
2018-11-12T21:29:04.835Z,11.80
2018-11-12T21:31:32.986Z,11.70
2018-11-12T21:34:01.096Z,11.80
2018-11-12T21:36:29.215Z,11.80
2018-11-12T21:38:57.313Z,11.90
2018-11-12T21:41:25.472Z,11.90
2018-11-12T21:43:53.728Z,11.90
2018-11-12T21:46:21.708Z,11.90
2018-11-12T21:48:49.901Z,11.90
2018-11-12T21:51:18.001Z,11.90
2018-11-12T21:53:46.160Z,11.90
2018-11-12T21:56:14.301Z,11.80
2018-11-12T21:58:42.649Z,11.80
2018-11-12T22:01:10.694Z,11.90
2018-11-12T22:03:38.815Z,11.90
2018-11-12T22:06:06.978Z,11.90
2018-11-12T22:08:35.146Z,12.00
2018-11-12T22:11:03.269Z,12.00
2018-11-12T22:13:31.392Z,12.00
2018-11-12T22:15:59.541Z,12.00
2018-11-12T22:18:27.683Z,12.00
2018-11-12T22:20:55.938Z,12.00
2018-11-12T22:23:24.108Z,11.90
2018-11-12T22:25:52.274Z,11.90
2018-11-12T22:28:20.503Z,11.80
2018-11-12T22:30:48.640Z,11.90
2018-11-12T22:33:16.808Z,11.90
2018-11-12T22:35:44.971Z,11.90
2018-11-12T22:38:13.218Z,11.80
2018-11-12T22:40:41.378Z,11.80
2018-11-12T22:43:09.523Z,11.80
2018-11-12T22:45:37.667Z,11.70
2018-11-12T22:48:06.153Z,11.60
2018-11-12T22:50:34.300Z,11.50
2018-11-12T22:53:02.447Z,11.60
2018-11-12T22:55:30.618Z,11.60
2018-11-12T22:57:58.749Z,11.60
2018-11-12T23:00:28.422Z,11.70
2018-11-12T23:02:57.202Z,11.70
2018-11-12T23:05:25.579Z,11.60
2018-11-12T23:07:54.378Z,11.70
2018-11-12T23:10:22.750Z,11.70
2018-11-12T23:12:50.881Z,11.70
2018-11-12T23:15:19.425Z,11.70
2018-11-12T23:17:47.529Z,11.70
2018-11-12T23:20:19.476Z,11.60
2018-11-12T23:22:48.232Z,11.60
2018-11-12T23:27:51.433Z,11.40
2018-11-12T23:30:20.741Z,11.40
2018-11-12T23:32:48.860Z,11.50
2018-11-12T23:35:18.321Z,11.60
2018-11-12T23:37:47.000Z,11.60
2018-11-12T23:40:15.410Z,11.60
2018-11-12T23:42:44.066Z,11.60
2018-11-12T23:45:12.185Z,11.60
2018-11-12T23:47:40.512Z,11.60
2018-11-12T23:50:12.272Z,11.50
2018-11-12T23:52:40.374Z,11.50
2018-11-12T23:55:08.529Z,11.40
2018-11-12T23:57:36.694Z,11.40
